sensor_id;sensor_type;location;lat;lon;timestamp;P1;durP1;ratioP1;P2;durP2;ratioP2
22606;SDS011;11470;20.968;105.834;2023-08-12T00:10:21;56.70;;;36.85;;
22606;SDS011;11470;20.968;105.834;2023-08-12T00:21:20;55.85;;;37.13;;
22606;SDS011;11470;20.968;105.834;2023-08-12T00:26:27;41.75;;;28.13;;
22606;SDS011;11470;20.968;105.834;2023-08-12T00:31:34;38.50;;;26.23;;
22606;SDS011;11470;20.968;105.834;2023-08-12T00:36:39;46.88;;;30.58;;
22606;SDS011;11470;20.968;105.834;2023-08-12T00:46:50;50.30;;;32.15;;
22606;SDS011;11470;20.968;105.834;2023-08-12T00:51:59;46.40;;;30.95;;
22606;SDS011;11470;20.968;105.834;2023-08-12T00:57:05;44.72;;;29.25;;
22606;SDS011;11470;20.968;105.834;2023-08-12T01:14:45;37.70;;;25.35;;
22606;SDS011;11470;20.968;105.834;2023-08-12T01:20:32;30.00;;;20.33;;
22606;SDS011;11470;20.968;105.834;2023-08-12T01:25:41;33.45;;;21.33;;
22606;SDS011;11470;20.968;105.834;2023-08-12T01:30:51;38.63;;;24.45;;
22606;SDS011;11470;20.968;105.834;2023-08-12T01:36:09;31.80;;;20.00;;
22606;SDS011;11470;20.968;105.834;2023-08-12T01:41:20;37.80;;;25.10;;
22606;SDS011;11470;20.968;105.834;2023-08-12T01:46:29;52.90;;;33.78;;
22606;SDS011;11470;20.968;105.834;2023-08-12T01:51:36;80.70;;;45.03;;
22606;SDS011;11470;20.968;105.834;2023-08-12T01:56:42;89.28;;;51.08;;
22606;SDS011;11470;20.968;105.834;2023-08-12T02:01:47;38.83;;;24.17;;
22606;SDS011;11470;20.968;105.834;2023-08-12T02:06:54;60.88;;;37.63;;
22606;SDS011;11470;20.968;105.834;2023-08-12T02:11:59;73.70;;;45.25;;
22606;SDS011;11470;20.968;105.834;2023-08-12T02:17:04;43.53;;;27.70;;
22606;SDS011;11470;20.968;105.834;2023-08-12T02:22:10;69.75;;;43.50;;
22606;SDS011;11470;20.968;105.834;2023-08-12T02:27:17;44.42;;;27.88;;
22606;SDS011;11470;20.968;105.834;2023-08-12T02:32:22;53.25;;;35.28;;
22606;SDS011;11470;20.968;105.834;2023-08-12T02:37:28;80.97;;;48.80;;
22606;SDS011;11470;20.968;105.834;2023-08-12T02:42:33;76.72;;;51.42;;
22606;SDS011;11470;20.968;105.834;2023-08-12T02:47:39;86.38;;;54.15;;
22606;SDS011;11470;20.968;105.834;2023-08-12T02:52:44;46.22;;;28.95;;
22606;SDS011;11470;20.968;105.834;2023-08-12T02:57:49;51.50;;;32.20;;
22606;SDS011;11470;20.968;105.834;2023-08-12T03:02:55;73.55;;;49.28;;
22606;SDS011;11470;20.968;105.834;2023-08-12T03:08:01;60.38;;;38.08;;
22606;SDS011;11470;20.968;105.834;2023-08-12T03:13:08;81.82;;;53.47;;
22606;SDS011;11470;20.968;105.834;2023-08-12T03:18:13;85.10;;;53.42;;
22606;SDS011;11470;20.968;105.834;2023-08-12T03:23:19;91.97;;;56.45;;
22606;SDS011;11470;20.968;105.834;2023-08-12T03:28:25;74.45;;;46.75;;
22606;SDS011;11470;20.968;105.834;2023-08-12T03:33:31;79.15;;;52.25;;
22606;SDS011;11470;20.968;105.834;2023-08-12T03:38:38;48.85;;;33.45;;
22606;SDS011;11470;20.968;105.834;2023-08-12T03:43:50;59.72;;;38.35;;
22606;SDS011;11470;20.968;105.834;2023-08-12T03:48:56;64.25;;;43.22;;
22606;SDS011;11470;20.968;105.834;2023-08-12T03:54:02;71.20;;;48.40;;
22606;SDS011;11470;20.968;105.834;2023-08-12T03:59:07;68.70;;;44.92;;
22606;SDS011;11470;20.968;105.834;2023-08-12T04:09:18;66.95;;;45.55;;
22606;SDS011;11470;20.968;105.834;2023-08-12T04:19:31;60.35;;;40.92;;
22606;SDS011;11470;20.968;105.834;2023-08-12T04:24:38;66.40;;;43.95;;
22606;SDS011;11470;20.968;105.834;2023-08-12T04:29:47;65.10;;;46.55;;
22606;SDS011;11470;20.968;105.834;2023-08-12T04:34:53;64.68;;;42.17;;
22606;SDS011;11470;20.968;105.834;2023-08-12T04:40:00;66.53;;;45.83;;
22606;SDS011;11470;20.968;105.834;2023-08-12T04:50:10;70.28;;;46.22;;
22606;SDS011;11470;20.968;105.834;2023-08-12T04:55:17;66.35;;;46.50;;
22606;SDS011;11470;20.968;105.834;2023-08-12T05:00:23;65.63;;;44.03;;
22606;SDS011;11470;20.968;105.834;2023-08-12T05:05:32;63.55;;;45.50;;
22606;SDS011;11470;20.968;105.834;2023-08-12T05:10:38;64.90;;;42.53;;
22606;SDS011;11470;20.968;105.834;2023-08-12T05:15:47;68.57;;;44.28;;
22606;SDS011;11470;20.968;105.834;2023-08-12T05:20:53;63.63;;;44.33;;
22606;SDS011;11470;20.968;105.834;2023-08-12T05:31:04;57.15;;;41.75;;
22606;SDS011;11470;20.968;105.834;2023-08-12T05:36:09;67.53;;;43.42;;
22606;SDS011;11470;20.968;105.834;2023-08-12T05:41:18;63.60;;;39.30;;
22606;SDS011;11470;20.968;105.834;2023-08-12T05:46:23;61.65;;;43.58;;
22606;SDS011;11470;20.968;105.834;2023-08-12T05:51:35;66.45;;;44.70;;
22606;SDS011;11470;20.968;105.834;2023-08-12T05:56:42;62.35;;;42.67;;
22606;SDS011;11470;20.968;105.834;2023-08-12T06:01:47;58.10;;;39.63;;
22606;SDS011;11470;20.968;105.834;2023-08-12T06:06:55;59.75;;;41.30;;
22606;SDS011;11470;20.968;105.834;2023-08-12T06:12:01;59.15;;;43.45;;
22606;SDS011;11470;20.968;105.834;2023-08-12T06:17:06;59.90;;;41.47;;
22606;SDS011;11470;20.968;105.834;2023-08-12T06:27:18;58.15;;;41.90;;
22606;SDS011;11470;20.968;105.834;2023-08-12T06:32:24;55.80;;;38.05;;
22606;SDS011;11470;20.968;105.834;2023-08-12T06:37:32;53.75;;;38.58;;
22606;SDS011;11470;20.968;105.834;2023-08-12T06:47:43;55.95;;;41.42;;
22606;SDS011;11470;20.968;105.834;2023-08-12T06:52:48;53.78;;;38.05;;
22606;SDS011;11470;20.968;105.834;2023-08-12T06:57:53;56.58;;;40.78;;
22606;SDS011;11470;20.968;105.834;2023-08-12T07:02:58;56.10;;;39.55;;
22606;SDS011;11470;20.968;105.834;2023-08-12T07:08:03;55.85;;;37.58;;
22606;SDS011;11470;20.968;105.834;2023-08-12T07:18:14;51.72;;;33.75;;
22606;SDS011;11470;20.968;105.834;2023-08-12T07:23:19;51.33;;;37.15;;
22606;SDS011;11470;20.968;105.834;2023-08-12T07:28:24;49.88;;;36.83;;
22606;SDS011;11470;20.968;105.834;2023-08-12T07:33:30;50.72;;;32.67;;
22606;SDS011;11470;20.968;105.834;2023-08-12T07:38:35;42.35;;;31.98;;
22606;SDS011;11470;20.968;105.834;2023-08-12T07:43:42;35.85;;;26.20;;
22606;SDS011;11470;20.968;105.834;2023-08-12T07:48:47;49.33;;;33.20;;
22606;SDS011;11470;20.968;105.834;2023-08-12T07:53:53;48.85;;;33.85;;
22606;SDS011;11470;20.968;105.834;2023-08-12T07:58:58;46.90;;;31.05;;
22606;SDS011;11470;20.968;105.834;2023-08-12T08:09:09;43.00;;;31.80;;
22606;SDS011;11470;20.968;105.834;2023-08-12T08:14:15;40.72;;;29.73;;
22606;SDS011;11470;20.968;105.834;2023-08-12T08:24:31;44.05;;;31.17;;
22606;SDS011;11470;20.968;105.834;2023-08-12T08:29:36;38.72;;;25.67;;
22606;SDS011;11470;20.968;105.834;2023-08-12T08:39:47;40.13;;;24.13;;
22606;SDS011;11470;20.968;105.834;2023-08-12T08:44:52;34.55;;;22.63;;
22606;SDS011;11470;20.968;105.834;2023-08-12T08:50:01;32.95;;;23.75;;
22606;SDS011;11470;20.968;105.834;2023-08-12T08:55:09;30.70;;;22.00;;
22606;SDS011;11470;20.968;105.834;2023-08-12T09:00:16;26.65;;;14.35;;
22606;SDS011;11470;20.968;105.834;2023-08-12T09:05:22;26.05;;;14.77;;
22606;SDS011;11470;20.968;105.834;2023-08-12T09:10:29;15.23;;;9.93;;
22606;SDS011;11470;20.968;105.834;2023-08-12T09:15:37;23.80;;;16.10;;
22606;SDS011;11470;20.968;105.834;2023-08-12T09:20:42;22.48;;;15.02;;
22606;SDS011;11470;20.968;105.834;2023-08-12T09:25:48;18.13;;;12.82;;
22606;SDS011;11470;20.968;105.834;2023-08-12T09:35:58;12.82;;;7.68;;
22606;SDS011;11470;20.968;105.834;2023-08-12T09:41:04;14.10;;;9.48;;
22606;SDS011;11470;20.968;105.834;2023-08-12T09:46:11;8.95;;;3.47;;
22606;SDS011;11470;20.968;105.834;2023-08-12T09:51:20;8.65;;;6.32;;
22606;SDS011;11470;20.968;105.834;2023-08-12T09:56:26;6.70;;;4.18;;
22606;SDS011;11470;20.968;105.834;2023-08-12T10:01:38;4.22;;;2.85;;
22606;SDS011;11470;20.968;105.834;2023-08-12T10:06:45;10.25;;;5.30;;
22606;SDS011;11470;20.968;105.834;2023-08-12T10:11:52;6.68;;;4.32;;
22606;SDS011;11470;20.968;105.834;2023-08-12T10:16:57;5.40;;;4.18;;
22606;SDS011;11470;20.968;105.834;2023-08-12T10:22:08;10.25;;;4.90;;
22606;SDS011;11470;20.968;105.834;2023-08-12T10:27:15;7.07;;;4.55;;
22606;SDS011;11470;20.968;105.834;2023-08-12T10:32:22;8.50;;;5.53;;
22606;SDS011;11470;20.968;105.834;2023-08-12T10:37:31;13.60;;;5.57;;
22606;SDS011;11470;20.968;105.834;2023-08-12T10:42:41;13.88;;;5.60;;
22606;SDS011;11470;20.968;105.834;2023-08-12T10:53:28;8.25;;;5.50;;
22606;SDS011;11470;20.968;105.834;2023-08-12T11:04:56;9.23;;;5.05;;
22606;SDS011;11470;20.968;105.834;2023-08-12T11:15:39;6.20;;;4.65;;
22606;SDS011;11470;20.968;105.834;2023-08-12T11:20:47;6.43;;;4.97;;
22606;SDS011;11470;20.968;105.834;2023-08-12T11:25:53;10.90;;;6.22;;
22606;SDS011;11470;20.968;105.834;2023-08-12T11:30:58;8.77;;;5.18;;
22606;SDS011;11470;20.968;105.834;2023-08-12T11:36:05;6.80;;;4.40;;
22606;SDS011;11470;20.968;105.834;2023-08-12T11:41:11;11.48;;;5.28;;
22606;SDS011;11470;20.968;105.834;2023-08-12T11:46:16;9.18;;;5.55;;
22606;SDS011;11470;20.968;105.834;2023-08-12T11:51:22;9.65;;;6.45;;
22606;SDS011;11470;20.968;105.834;2023-08-12T11:56:27;12.73;;;7.10;;
22606;SDS011;11470;20.968;105.834;2023-08-12T12:01:33;12.45;;;7.65;;
22606;SDS011;11470;20.968;105.834;2023-08-12T12:06:43;13.07;;;6.93;;
22606;SDS011;11470;20.968;105.834;2023-08-12T12:11:58;11.52;;;6.25;;
22606;SDS011;11470;20.968;105.834;2023-08-12T12:17:56;9.55;;;5.50;;
22606;SDS011;11470;20.968;105.834;2023-08-12T12:43:07;9.52;;;5.53;;
22606;SDS011;11470;20.968;105.834;2023-08-12T12:48:17;11.95;;;6.60;;
22606;SDS011;11470;20.968;105.834;2023-08-12T12:58:40;12.98;;;6.63;;
22606;SDS011;11470;20.968;105.834;2023-08-12T13:03:46;11.00;;;6.28;;
22606;SDS011;11470;20.968;105.834;2023-08-12T13:08:54;10.07;;;5.95;;
22606;SDS011;11470;20.968;105.834;2023-08-12T13:13:59;12.57;;;6.70;;
22606;SDS011;11470;20.968;105.834;2023-08-12T13:19:34;12.55;;;6.90;;
22606;SDS011;11470;20.968;105.834;2023-08-12T13:24:39;12.55;;;6.30;;
22606;SDS011;11470;20.968;105.834;2023-08-12T13:29:45;12.40;;;5.70;;
22606;SDS011;11470;20.968;105.834;2023-08-12T13:34:50;13.15;;;6.40;;
22606;SDS011;11470;20.968;105.834;2023-08-12T13:45:37;14.27;;;7.20;;
22606;SDS011;11470;20.968;105.834;2023-08-12T13:50:47;12.98;;;6.47;;
22606;SDS011;11470;20.968;105.834;2023-08-12T13:55:54;14.02;;;7.45;;
22606;SDS011;11470;20.968;105.834;2023-08-12T14:00:59;11.20;;;6.47;;
22606;SDS011;11470;20.968;105.834;2023-08-12T14:06:06;16.08;;;7.63;;
22606;SDS011;11470;20.968;105.834;2023-08-12T14:11:11;14.43;;;6.97;;
22606;SDS011;11470;20.968;105.834;2023-08-12T14:16:31;14.18;;;8.23;;
22606;SDS011;11470;20.968;105.834;2023-08-12T14:21:45;15.43;;;9.40;;
22606;SDS011;11470;20.968;105.834;2023-08-12T14:26:51;19.52;;;12.57;;
22606;SDS011;11470;20.968;105.834;2023-08-12T14:31:56;22.88;;;11.00;;
22606;SDS011;11470;20.968;105.834;2023-08-12T14:42:06;20.95;;;10.32;;
22606;SDS011;11470;20.968;105.834;2023-08-12T14:47:14;16.80;;;9.23;;
22606;SDS011;11470;20.968;105.834;2023-08-12T14:52:22;17.63;;;8.85;;
22606;SDS011;11470;20.968;105.834;2023-08-12T15:04:37;16.80;;;8.73;;
22606;SDS011;11470;20.968;105.834;2023-08-12T15:09:45;16.13;;;8.23;;
22606;SDS011;11470;20.968;105.834;2023-08-12T15:14:59;14.07;;;7.55;;
22606;SDS011;11470;20.968;105.834;2023-08-12T15:20:04;16.35;;;7.60;;
22606;SDS011;11470;20.968;105.834;2023-08-12T15:25:10;10.52;;;6.68;;
22606;SDS011;11470;20.968;105.834;2023-08-12T15:30:15;15.90;;;6.63;;
22606;SDS011;11470;20.968;105.834;2023-08-12T15:35:20;17.75;;;6.55;;
22606;SDS011;11470;20.968;105.834;2023-08-12T15:40:27;13.43;;;6.55;;
22606;SDS011;11470;20.968;105.834;2023-08-12T15:50:37;16.08;;;9.25;;
22606;SDS011;11470;20.968;105.834;2023-08-12T16:01:18;32.97;;;17.45;;
22606;SDS011;11470;20.968;105.834;2023-08-12T16:06:25;20.70;;;10.68;;
22606;SDS011;11470;20.968;105.834;2023-08-12T16:11:31;27.40;;;13.88;;
22606;SDS011;11470;20.968;105.834;2023-08-12T16:16:38;28.42;;;13.38;;
22606;SDS011;11470;20.968;105.834;2023-08-12T16:21:43;32.63;;;13.55;;
22606;SDS011;11470;20.968;105.834;2023-08-12T16:26:48;35.17;;;16.83;;
22606;SDS011;11470;20.968;105.834;2023-08-12T16:31:54;35.83;;;17.08;;
22606;SDS011;11470;20.968;105.834;2023-08-12T16:36:58;39.65;;;17.23;;
22606;SDS011;11470;20.968;105.834;2023-08-12T16:42:10;43.42;;;22.30;;
22606;SDS011;11470;20.968;105.834;2023-08-12T16:52:20;45.55;;;24.83;;
22606;SDS011;11470;20.968;105.834;2023-08-12T16:57:25;63.63;;;38.05;;
22606;SDS011;11470;20.968;105.834;2023-08-12T17:07:37;56.50;;;33.08;;
22606;SDS011;11470;20.968;105.834;2023-08-12T17:12:42;50.58;;;28.23;;
22606;SDS011;11470;20.968;105.834;2023-08-12T17:22:52;33.15;;;19.52;;
22606;SDS011;11470;20.968;105.834;2023-08-12T17:27:57;40.25;;;20.10;;
22606;SDS011;11470;20.968;105.834;2023-08-12T17:33:03;27.67;;;14.68;;
22606;SDS011;11470;20.968;105.834;2023-08-12T17:43:13;20.50;;;9.90;;
22606;SDS011;11470;20.968;105.834;2023-08-12T17:48:19;18.65;;;8.93;;
22606;SDS011;11470;20.968;105.834;2023-08-12T17:53:26;18.83;;;8.80;;
22606;SDS011;11470;20.968;105.834;2023-08-12T17:58:31;11.57;;;7.75;;
22606;SDS011;11470;20.968;105.834;2023-08-12T18:03:39;16.05;;;7.60;;
22606;SDS011;11470;20.968;105.834;2023-08-12T18:08:47;13.77;;;7.28;;
22606;SDS011;11470;20.968;105.834;2023-08-12T18:13:52;8.23;;;5.83;;
22606;SDS011;11470;20.968;105.834;2023-08-12T18:19:01;15.05;;;6.30;;
22606;SDS011;11470;20.968;105.834;2023-08-12T18:24:06;11.90;;;7.57;;
22606;SDS011;11470;20.968;105.834;2023-08-12T18:29:14;12.40;;;6.37;;
22606;SDS011;11470;20.968;105.834;2023-08-12T18:34:25;11.05;;;6.68;;
22606;SDS011;11470;20.968;105.834;2023-08-12T18:39:37;14.48;;;6.45;;
22606;SDS011;11470;20.968;105.834;2023-08-12T18:44:41;16.63;;;6.97;;
22606;SDS011;11470;20.968;105.834;2023-08-12T18:49:48;10.98;;;6.95;;
22606;SDS011;11470;20.968;105.834;2023-08-12T18:54:56;12.65;;;6.80;;
22606;SDS011;11470;20.968;105.834;2023-08-12T19:00:05;11.07;;;6.88;;
22606;SDS011;11470;20.968;105.834;2023-08-12T19:05:11;13.68;;;7.25;;
22606;SDS011;11470;20.968;105.834;2023-08-12T19:10:17;14.15;;;7.50;;
22606;SDS011;11470;20.968;105.834;2023-08-12T19:15:23;13.00;;;7.13;;
22606;SDS011;11470;20.968;105.834;2023-08-12T19:20:28;11.73;;;6.20;;
22606;SDS011;11470;20.968;105.834;2023-08-12T19:25:33;10.98;;;6.10;;
22606;SDS011;11470;20.968;105.834;2023-08-12T19:30:38;13.23;;;6.13;;
22606;SDS011;11470;20.968;105.834;2023-08-12T19:35:43;10.30;;;6.20;;
22606;SDS011;11470;20.968;105.834;2023-08-12T19:45:55;11.40;;;6.40;;
22606;SDS011;11470;20.968;105.834;2023-08-12T19:51:04;17.02;;;7.05;;
22606;SDS011;11470;20.968;105.834;2023-08-12T19:56:09;10.25;;;5.90;;
22606;SDS011;11470;20.968;105.834;2023-08-12T20:01:15;15.60;;;6.97;;
22606;SDS011;11470;20.968;105.834;2023-08-12T20:06:20;11.75;;;7.07;;
22606;SDS011;11470;20.968;105.834;2023-08-12T20:11:25;15.13;;;7.22;;
22606;SDS011;11470;20.968;105.834;2023-08-12T20:16:30;17.80;;;8.52;;
22606;SDS011;11470;20.968;105.834;2023-08-12T20:21:35;16.45;;;8.35;;
22606;SDS011;11470;20.968;105.834;2023-08-12T20:26:41;14.98;;;7.82;;
22606;SDS011;11470;20.968;105.834;2023-08-12T20:31:46;13.40;;;8.48;;
22606;SDS011;11470;20.968;105.834;2023-08-12T20:36:51;13.33;;;8.70;;
22606;SDS011;11470;20.968;105.834;2023-08-12T20:41:55;15.80;;;9.77;;
22606;SDS011;11470;20.968;105.834;2023-08-12T20:47:00;13.67;;;9.87;;
22606;SDS011;11470;20.968;105.834;2023-08-12T20:52:06;13.45;;;10.27;;
22606;SDS011;11470;20.968;105.834;2023-08-12T20:57:11;19.83;;;11.85;;
22606;SDS011;11470;20.968;105.834;2023-08-12T21:02:17;13.65;;;9.55;;
22606;SDS011;11470;20.968;105.834;2023-08-12T21:07:22;13.98;;;9.00;;
22606;SDS011;11470;20.968;105.834;2023-08-12T21:12:27;19.03;;;10.80;;
22606;SDS011;11470;20.968;105.834;2023-08-12T21:17:32;24.53;;;12.90;;
22606;SDS011;11470;20.968;105.834;2023-08-12T21:22:38;22.35;;;12.27;;
22606;SDS011;11470;20.968;105.834;2023-08-12T21:27:46;15.93;;;10.80;;
22606;SDS011;11470;20.968;105.834;2023-08-12T21:32:51;17.92;;;11.60;;
22606;SDS011;11470;20.968;105.834;2023-08-12T21:37:56;20.15;;;12.00;;
22606;SDS011;11470;20.968;105.834;2023-08-12T21:43:01;21.90;;;13.63;;
22606;SDS011;11470;20.968;105.834;2023-08-12T21:48:06;29.20;;;19.17;;
22606;SDS011;11470;20.968;105.834;2023-08-12T21:53:12;28.98;;;17.92;;
22606;SDS011;11470;20.968;105.834;2023-08-12T21:58:16;34.03;;;21.10;;
22606;SDS011;11470;20.968;105.834;2023-08-12T22:03:24;33.63;;;22.00;;
22606;SDS011;11470;20.968;105.834;2023-08-12T22:08:30;33.85;;;22.63;;
22606;SDS011;11470;20.968;105.834;2023-08-12T22:13:35;45.05;;;28.45;;
22606;SDS011;11470;20.968;105.834;2023-08-12T22:18:39;35.17;;;23.37;;
22606;SDS011;11470;20.968;105.834;2023-08-12T22:28:50;27.55;;;18.88;;
22606;SDS011;11470;20.968;105.834;2023-08-12T22:33:55;33.63;;;20.47;;
22606;SDS011;11470;20.968;105.834;2023-08-12T22:39:01;40.63;;;24.75;;
22606;SDS011;11470;20.968;105.834;2023-08-12T22:44:10;32.17;;;22.63;;
22606;SDS011;11470;20.968;105.834;2023-08-12T22:49:14;36.53;;;24.17;;
22606;SDS011;11470;20.968;105.834;2023-08-12T22:54:20;53.80;;;32.77;;
22606;SDS011;11470;20.968;105.834;2023-08-12T22:59:24;45.35;;;29.88;;
22606;SDS011;11470;20.968;105.834;2023-08-12T23:04:30;67.87;;;42.53;;
22606;SDS011;11470;20.968;105.834;2023-08-12T23:09:35;57.88;;;38.53;;
22606;SDS011;11470;20.968;105.834;2023-08-12T23:14:39;59.27;;;38.50;;
22606;SDS011;11470;20.968;105.834;2023-08-12T23:26:50;35.78;;;22.60;;
22606;SDS011;11470;20.968;105.834;2023-08-12T23:31:55;42.42;;;27.83;;
22606;SDS011;11470;20.968;105.834;2023-08-12T23:37:01;45.58;;;28.17;;
22606;SDS011;11470;20.968;105.834;2023-08-12T23:42:06;45.17;;;26.53;;
22606;SDS011;11470;20.968;105.834;2023-08-12T23:47:11;52.88;;;30.30;;
22606;SDS011;11470;20.968;105.834;2023-08-12T23:52:16;53.47;;;32.17;;
22606;SDS011;11470;20.968;105.834;2023-08-12T23:57:21;45.22;;;28.35;;
